Time;durP1;ratioP1;P1;durP2;ratioP2;P2;SDS_P1;SDS_P2;PMS_P1;PMS_P2;Temp;Humidity;BMP_temperature;BMP_pressure;BME280_temperature;BME280_humidity;BME280_pressure;Samples;Min_cycle;Max_cycle;Signal;HPM_P1;HPM_P2
2021/12/29 00:02:06;;;;;;;21.10;15.33;;;;;;;3.16;100.00;99313.09;5024338;28;20238;-53
2021/12/29 00:04:32;;;;;;;20.57;16.17;;;;;;;2.96;100.00;99320.75;5023960;28;20243;-55
2021/12/29 00:06:59;;;;;;;20.40;15.83;;;;;;;3.02;100.00;99315.59;5024661;28;20235;-53
2021/12/29 00:09:25;;;;;;;22.07;15.00;;;;;;;2.87;100.00;99318.94;5025148;28;20539;-54
2021/12/29 00:11:52;;;;;;;19.63;16.47;;;;;;;2.92;100.00;99323.31;5025009;28;20320;-55
2021/12/29 00:14:18;;;;;;;28.17;17.80;;;;;;;2.82;100.00;99332.72;5023013;28;20327;-54
2021/12/29 00:16:46;;;;;;;27.27;16.70;;;;;;;2.78;100.00;99329.25;5029998;28;20706;-54
2021/12/29 00:19:12;;;;;;;25.30;17.80;;;;;;;2.77;100.00;99335.31;5025582;28;20264;-55
2021/12/29 00:21:39;;;;;;;21.80;15.80;;;;;;;2.76;100.00;99338.72;5027447;28;20612;-52
2021/12/29 00:24:06;;;;;;;22.67;15.60;;;;;;;2.83;100.00;99340.50;5027232;28;20657;-55
2021/12/29 00:26:33;;;;;;;23.67;16.03;;;;;;;2.78;100.00;99354.31;5023275;28;20297;-55
2021/12/29 00:29:00;;;;;;;19.03;15.20;;;;;;;2.79;100.00;99354.31;5023699;28;20235;-55
2021/12/29 00:31:27;;;;;;;22.13;15.47;;;;;;;2.78;100.00;99354.31;5024811;28;20662;-53
2021/12/29 00:33:55;;;;;;;22.60;15.30;;;;;;;2.77;100.00;99356.03;5018452;28;20243;-53
2021/12/29 00:36:22;;;;;;;19.33;14.90;;;;;;;2.83;100.00;99356.06;5027647;28;20236;-54
2021/12/29 00:38:48;;;;;;;22.03;16.67;;;;;;;2.79;100.00;99363.81;5028607;28;20239;-55
2021/12/29 00:41:16;;;;;;;20.40;15.03;;;;;;;2.75;100.00;99370.69;5028125;28;20244;-53
2021/12/29 00:43:44;;;;;;;17.47;14.87;;;;;;;2.73;100.00;99372.38;5027194;28;20252;-54
2021/12/29 00:46:12;;;;;;;22.77;15.77;;;;;;;2.73;100.00;99372.38;5027342;28;20240;-55
2021/12/29 00:48:41;;;;;;;25.13;16.67;;;;;;;2.78;100.00;99369.84;5027249;28;20231;-55
2021/12/29 00:51:10;;;;;;;23.13;17.50;;;;;;;2.76;100.00;99379.31;5027497;28;20326;-56
2021/12/29 00:53:37;;;;;;;22.77;15.77;;;;;;;2.65;100.00;99379.22;5028077;28;20251;-55
2021/12/29 00:56:04;;;;;;;22.63;15.80;;;;;;;2.64;100.00;99380.09;5027496;28;20247;-57
2021/12/29 00:58:30;;;;;;;22.30;16.83;;;;;;;2.66;100.00;99387.88;5026971;28;20705;-54
2021/12/29 01:00:57;;;;;;;24.67;16.70;;;;;;;2.63;100.00;99393.88;5028111;28;20259;-53
2021/12/29 01:03:24;;;;;;;20.00;16.60;;;;;;;2.60;100.00;99394.75;5026481;28;20289;-55
2021/12/29 01:05:50;;;;;;;25.57;16.40;;;;;;;2.67;100.00;99395.69;5027036;28;20255;-53
2021/12/29 01:08:18;;;;;;;19.43;15.10;;;;;;;2.64;100.00;99390.47;5027844;28;20232;-54
2021/12/29 01:10:45;;;;;;;20.67;14.87;;;;;;;2.61;100.00;99390.44;5027251;28;20259;-53
2021/12/29 01:13:14;;;;;;;22.23;15.40;;;;;;;2.60;100.00;99393.88;5026152;28;20263;-55
2021/12/29 01:15:57;;;;;;;22.77;16.10;;;;;;;2.54;100.00;99406.78;5027057;28;20317;-54
2021/12/29 01:18:24;;;;;;;20.67;14.23;;;;;;;2.58;100.00;99405.94;5026707;28;20261;-55
2021/12/29 01:20:50;;;;;;;20.17;16.17;;;;;;;2.56;100.00;99413.72;5029491;28;20286;-54
2021/12/29 01:23:18;;;;;;;22.30;16.00;;;;;;;2.56;100.00;99420.59;5027330;28;20266;-54
2021/12/29 01:25:44;;;;;;;20.77;15.33;;;;;;;2.58;100.00;99418.91;5027511;28;20240;-56
2021/12/29 01:28:10;;;;;;;22.40;17.17;;;;;;;2.58;100.00;99418.91;5021365;28;20295;-54
2021/12/29 01:30:37;;;;;;;20.17;15.53;;;;;;;2.54;100.00;99420.59;5024614;28;20330;-54
2021/12/29 01:33:06;;;;;;;21.87;16.60;;;;;;;2.59;100.00;99428.41;5026590;28;20267;-57
2021/12/29 01:35:32;;;;;;;21.57;15.23;;;;;;;2.58;100.00;99429.25;5025920;28;20502;-56
2021/12/29 01:37:59;;;;;;;20.03;15.67;;;;;;;2.58;100.00;99426.66;5027495;28;20235;-54
2021/12/29 01:40:26;;;;;;;25.57;17.10;;;;;;;2.54;100.00;99427.50;5027689;28;20239;-53
2021/12/29 01:42:53;;;;;;;20.07;15.07;;;;;;;2.56;100.00;99433.53;5018590;28;20266;-56
2021/12/29 01:45:20;;;;;;;20.03;14.43;;;;;;;2.56;100.00;99443.91;5025960;28;20712;-55
2021/12/29 01:47:46;;;;;;;21.63;16.33;;;;;;;2.65;100.00;99437.97;5027479;28;20266;-55
2021/12/29 01:50:13;;;;;;;21.10;16.03;;;;;;;2.63;100.00;99441.41;5026339;28;20326;-56
2021/12/29 01:52:41;;;;;;;19.03;14.37;;;;;;;2.66;100.00;99445.75;5027325;28;20302;-53
2021/12/29 01:55:10;;;;;;;22.17;16.97;;;;;;;2.53;100.00;99443.91;5026417;28;20671;-54
2021/12/29 01:57:39;;;;;;;26.20;17.47;;;;;;;2.56;100.00;99443.91;5026144;28;20314;-55
2021/12/29 02:00:08;;;;;;;20.23;16.30;;;;;;;2.60;100.00;99441.38;5026598;28;20618;-55
2021/12/29 02:02:34;;;;;;;22.70;16.93;;;;;;;2.65;100.00;99444.00;5026945;28;20471;-55
2021/12/29 02:05:00;;;;;;;19.87;14.63;;;;;;;2.65;100.00;99444.00;5025856;28;20681;-54
2021/12/29 02:07:28;;;;;;;21.20;16.10;;;;;;;2.65;100.00;99451.78;5025891;28;20654;-54
2021/12/29 02:09:54;;;;;;;23.90;16.13;;;;;;;2.65;100.00;99454.38;5008706;28;20232;-56
2021/12/29 02:12:21;;;;;;;25.33;15.67;;;;;;;2.75;100.00;99465.72;5026338;28;20228;-54
2021/12/29 02:14:49;;;;;;;20.17;15.57;;;;;;;2.82;100.00;99462.31;5026059;28;20306;-54
2021/12/29 02:17:16;;;;;;;26.20;16.20;;;;;;;2.79;100.00;99470.94;5026358;28;20623;-53
2021/12/29 02:19:47;;;;;;;21.13;16.50;;;;;;;2.75;100.00;99468.31;5027001;28;20236;-56
2021/12/29 02:22:29;;;;;;;24.43;16.13;;;;;;;2.77;100.00;99466.56;5027842;28;20259;-56
2021/12/29 02:25:08;;;;;;;19.73;15.73;;;;;;;2.82;100.00;99467.50;5021298;28;20247;-54
2021/12/29 02:27:36;;;;;;;20.43;15.80;;;;;;;2.82;100.00;99480.47;5026101;28;20318;-57
2021/12/29 02:30:03;;;;;;;19.70;13.97;;;;;;;2.87;100.00;99482.22;5027675;28;20548;-54
2021/12/29 02:32:29;;;;;;;20.97;15.07;;;;;;;2.86;100.00;99485.69;5027374;28;20615;-54
2021/12/29 02:34:56;;;;;;;18.70;15.47;;;;;;;2.90;100.00;99485.72;5027496;28;20247;-53
2021/12/29 02:37:23;;;;;;;24.13;16.93;;;;;;;2.95;100.00;99491.81;5026663;28;20244;-53
2021/12/29 02:39:51;;;;;;;21.40;14.73;;;;;;;3.00;100.00;99493.59;5027394;28;20232;-54
2021/12/29 02:42:21;;;;;;;21.67;15.90;;;;;;;2.98;100.00;99500.47;5026939;28;20254;-54
2021/12/29 02:44:49;;;;;;;19.90;15.13;;;;;;;3.04;100.00;99504.88;5027042;28;20615;-53
2021/12/29 02:47:15;;;;;;;18.47;14.50;;;;;;;3.05;100.00;99502.31;5027174;28;20237;-55
2021/12/29 02:49:42;;;;;;;16.37;13.73;;;;;;;3.02;100.00;99506.56;5027638;28;20317;-53
2021/12/29 02:52:09;;;;;;;21.60;15.53;;;;;;;3.00;100.00;99503.09;5028089;28;20240;-55
2021/12/29 02:54:37;;;;;;;18.00;14.10;;;;;;;3.00;100.00;99508.28;5028027;28;20232;-55
2021/12/29 02:57:04;;;;;;;17.40;14.13;;;;;;;3.06;100.00;99508.34;5025430;28;20330;-55
2021/12/29 02:59:30;;;;;;;22.07;15.10;;;;;;;3.06;100.00;99510.94;5026871;28;20317;-54
2021/12/29 03:01:56;;;;;;;16.73;13.67;;;;;;;3.06;100.00;99513.53;5028285;28;20744;-54
2021/12/29 03:04:23;;;;;;;16.73;14.07;;;;;;;3.04;100.00;99515.25;5026838;28;20322;-55
2021/12/29 03:06:49;;;;;;;20.73;14.53;;;;;;;3.08;100.00;99523.03;5027128;28;20297;-54
2021/12/29 03:09:17;;;;;;;20.10;13.27;;;;;;;3.12;100.00;99521.34;5027832;28;20266;-54
2021/12/29 03:11:44;;;;;;;22.13;14.50;;;;;;;3.15;100.00;99518.78;5030934;28;20242;-54
2021/12/29 03:14:12;;;;;;;17.60;13.50;;;;;;;3.18;100.00;99518.81;5032254;28;20264;-54
2021/12/29 03:16:39;;;;;;;19.37;15.03;;;;;;;3.28;100.00;99519.78;5036738;28;20264;-54
2021/12/29 03:19:06;;;;;;;17.07;13.10;;;;;;;3.25;100.00;99515.44;5035049;28;20262;-55
2021/12/29 03:21:34;;;;;;;15.27;12.57;;;;;;;3.30;100.00;99524.13;5041242;28;20319;-55
2021/12/29 03:24:01;;;;;;;14.93;13.00;;;;;;;3.34;100.00;99523.31;5038401;28;20548;-54
2021/12/29 03:26:27;;;;;;;17.50;12.97;;;;;;;3.42;100.00;99522.50;5033435;28;20260;-55
2021/12/29 03:28:57;;;;;;;16.80;13.43;;;;;;;3.41;100.00;99528.56;5021359;28;20235;-53
2021/12/29 03:31:24;;;;;;;17.70;13.53;;;;;;;3.41;100.00;99525.97;5026302;28;20239;-54
2021/12/29 03:33:50;;;;;;;17.87;11.93;;;;;;;3.41;100.00;99525.97;5024974;28;20228;-53
2021/12/29 03:36:19;;;;;;;14.67;12.37;;;;;;;3.40;100.00;99539.75;5024549;28;20733;-55
2021/12/29 03:38:46;;;;;;;16.43;13.17;;;;;;;3.46;100.00;99542.41;5024453;28;20630;-53
2021/12/29 03:41:15;;;;;;;15.10;12.07;;;;;;;3.49;100.00;99550.22;5024466;28;20294;-56
2021/12/29 03:43:42;;;;;;;13.93;10.03;;;;;;;3.52;100.00;99542.47;5024119;28;20275;-56
2021/12/29 03:46:11;;;;;;;17.23;11.73;;;;;;;3.50;100.00;99546.75;5024234;28;20240;-54
2021/12/29 03:48:40;;;;;;;14.40;10.43;;;;;;;3.43;100.00;99534.59;5024659;28;20260;-56
2021/12/29 03:51:07;;;;;;;16.20;10.57;;;;;;;3.24;100.00;99529.25;5025102;28;20271;-55
2021/12/29 03:53:33;;;;;;;12.63;10.20;;;;;;;3.26;100.00;99539.63;5025280;28;20290;-56
2021/12/29 03:56:00;;;;;;;14.10;10.50;;;;;;;3.24;100.00;99534.44;5024732;28;20276;-54
2021/12/29 03:58:28;;;;;;;16.07;10.60;;;;;;;3.20;100.00;99548.25;5023059;28;20271;-55
2021/12/29 04:00:55;;;;;;;15.17;10.50;;;;;;;3.31;100.00;99550.94;5025272;28;20235;-55
2021/12/29 04:03:23;;;;;;;17.07;11.03;;;;;;;3.33;100.00;99555.28;5024056;28;20292;-54
2021/12/29 04:05:50;;;;;;;15.67;9.30;;;;;;;3.29;100.00;99558.69;5024171;28;20275;-54
2021/12/29 04:08:16;;;;;;;15.63;10.53;;;;;;;3.27;100.00;99562.16;5027132;28;20272;-55
2021/12/29 04:10:43;;;;;;;12.60;9.77;;;;;;;3.24;100.00;99560.38;5028626;28;20773;-54
2021/12/29 04:13:10;;;;;;;11.80;9.43;;;;;;;3.22;100.00;99567.28;5027649;28;20457;-54
2021/12/29 04:15:37;;;;;;;12.03;9.70;;;;;;;3.21;100.00;99572.47;5028235;28;20325;-55
2021/12/29 04:18:14;;;;;;;13.07;9.53;;;;;;;3.22;100.00;99582.81;5028176;28;20244;-56
2021/12/29 04:20:57;;;;;;;11.90;8.87;;;;;;;3.23;100.00;99591.47;5028045;28;20236;-53
2021/12/29 04:23:25;;;;;;;17.73;10.27;;;;;;;3.28;100.00;99595.88;5028370;28;20233;-56
2021/12/29 04:25:54;;;;;;;12.83;10.10;;;;;;;3.41;100.00;99602.06;5028089;28;20240;-53
2021/12/29 04:28:23;;;;;;;12.07;9.83;;;;;;;3.47;100.00;99614.19;5021257;28;20233;-53
2021/12/29 04:30:50;;;;;;;16.10;10.30;;;;;;;3.54;100.00;99618.59;5030839;28;20251;-54
2021/12/29 04:33:17;;;;;;;10.93;9.03;;;;;;;3.59;100.00;99610.00;5032089;28;20709;-54
2021/12/29 04:35:45;;;;;;;11.80;9.83;;;;;;;3.62;100.00;99613.50;5032353;28;20253;-56
2021/12/29 04:38:12;;;;;;;11.73;8.60;;;;;;;3.61;100.00;99622.97;5027851;28;20264;-54
2021/12/29 04:40:38;;;;;;;13.13;9.83;;;;;;;3.63;100.00;99626.47;5028451;28;20275;-56
2021/12/29 04:43:05;;;;;;;13.90;9.90;;;;;;;3.67;100.00;99628.22;5026627;28;20255;-55
2021/12/29 04:45:31;;;;;;;12.13;9.67;;;;;;;3.73;100.00;99625.69;5027635;28;20310;-54
2021/12/29 04:47:59;;;;;;;13.63;9.97;;;;;;;3.74;100.00;99624.84;5028782;28;20311;-55
2021/12/29 04:50:27;;;;;;;11.83;9.43;;;;;;;3.82;100.00;99636.16;5027437;28;20256;-55
2021/12/29 04:52:57;;;;;;;13.20;9.00;;;;;;;3.82;100.00;99627.50;5028145;28;20224;-55
2021/12/29 04:55:24;;;;;;;13.90;9.57;;;;;;;3.83;100.00;99639.63;5026419;28;20243;-55
2021/12/29 04:57:50;;;;;;;14.07;9.43;;;;;;;3.80;100.00;99653.44;5026353;28;20236;-56
2021/12/29 05:00:18;;;;;;;12.57;8.93;;;;;;;3.86;100.00;99650.06;5022385;28;20314;-56
2021/12/29 05:02:44;;;;;;;15.77;9.60;;;;;;;3.86;100.00;99649.16;5027941;28;20232;-54
2021/12/29 05:05:21;;;;;;;14.40;9.27;;;;;;;3.88;100.00;99640.53;5026735;28;20557;-55
2021/12/29 05:10:34;;;;;;;11.60;8.43;;;;;;;3.94;100.00;99650.09;5024434;28;20243;-54
2021/12/29 05:13:01;;;;;;;18.83;9.63;;;;;;;4.09;100.00;99657.16;5027071;28;20252;-51
2021/12/29 05:15:27;;;;;;;12.40;9.07;;;;;;;3.99;100.00;99654.47;5027491;28;20603;-55
2021/12/29 05:17:54;;;;;;;15.37;8.57;;;;;;;4.04;100.00;99657.97;5027773;28;20670;-56
2021/12/29 05:20:21;;;;;;;15.60;9.57;;;;;;;3.93;100.00;99664.81;5027103;28;20283;-53
2021/12/29 05:22:47;;;;;;;14.30;9.97;;;;;;;3.95;100.00;99670.00;5028244;28;20260;-53
2021/12/29 05:25:13;;;;;;;14.37;8.90;;;;;;;3.95;100.00;99670.00;5026540;28;20662;-52
2021/12/29 05:27:41;;;;;;;18.30;10.03;;;;;;;3.99;100.00;99671.78;5026684;28;20725;-54
2021/12/29 05:30:08;;;;;;;13.50;8.83;;;;;;;4.02;100.00;99683.06;5027223;28;20275;-54
2021/12/29 05:32:35;;;;;;;14.13;10.03;;;;;;;3.98;100.00;99678.69;5027321;28;20317;-54
2021/12/29 05:35:01;;;;;;;15.33;9.67;;;;;;;4.08;100.00;99687.44;5026213;28;20260;-53
2021/12/29 05:37:27;;;;;;;12.67;10.10;;;;;;;4.11;100.00;99696.97;5027415;28;20913;-55
2021/12/29 05:39:54;;;;;;;14.17;9.60;;;;;;;4.16;100.00;99698.75;5027357;28;20679;-55
2021/12/29 05:42:20;;;;;;;10.43;8.93;;;;;;;4.15;100.00;99697.03;5026381;28;20255;-55
2021/12/29 05:44:48;;;;;;;12.00;7.53;;;;;;;4.24;100.00;99702.28;5026825;28;20247;-54
2021/12/29 05:47:14;;;;;;;9.53;7.50;;;;;;;4.17;100.00;99708.28;5026060;28;20241;-56
2021/12/29 05:49:40;;;;;;;11.47;8.23;;;;;;;4.17;100.00;99708.28;5026185;28;20228;-55
2021/12/29 05:52:07;;;;;;;14.37;8.50;;;;;;;4.13;100.00;99716.91;5026700;28;20782;-53
2021/12/29 05:54:33;;;;;;;13.13;8.63;;;;;;;4.20;100.00;99715.25;5027075;28;20667;-55
2021/12/29 05:57:00;;;;;;;12.80;9.30;;;;;;;4.17;100.00;99721.28;5026412;28;20670;-56
2021/12/29 05:59:26;;;;;;;12.73;8.63;;;;;;;4.14;100.00;99734.25;5026624;28;20270;-57
2021/12/29 06:01:54;;;;;;;13.70;8.83;;;;;;;4.14;100.00;99723.88;5026547;28;20299;-55
2021/12/29 06:04:20;;;;;;;12.20;8.43;;;;;;;4.10;100.00;99722.06;5025664;28;20260;-56
2021/12/29 06:06:46;;;;;;;10.93;7.53;;;;;;;4.12;100.00;99735.97;5026404;28;20848;-55
2021/12/29 06:09:14;;;;;;;14.67;8.33;;;;;;;4.09;100.00;99743.72;5026843;28;20236;-53
2021/12/29 06:11:40;;;;;;;13.93;8.70;;;;;;;4.14;100.00;99747.25;5026574;28;20240;-55
2021/12/29 06:14:07;;;;;;;12.63;8.53;;;;;;;4.14;100.00;99742.06;5026289;28;20244;-54
2021/12/29 06:16:33;;;;;;;16.77;9.07;;;;;;;4.28;100.00;99743.03;5026721;28;20239;-55
2021/12/29 06:19:01;;;;;;;17.93;8.57;;;;;;;4.22;100.00;99742.97;5026297;28;20271;-56
2021/12/29 06:21:27;;;;;;;12.73;9.20;;;;;;;4.15;100.00;99750.72;5027967;28;20294;-54
2021/12/29 06:23:54;;;;;;;10.20;7.63;;;;;;;4.12;100.00;99746.34;5022057;28;20232;-55
2021/12/29 06:26:20;;;;;;;10.90;8.03;;;;;;;4.10;100.00;99753.25;5025757;28;20261;-54
2021/12/29 06:28:48;;;;;;;12.50;8.77;;;;;;;4.10;100.00;99755.84;5026325;28;20634;-56
2021/12/29 06:31:15;;;;;;;13.03;8.60;;;;;;;4.07;100.00;99755.81;5026021;28;20232;-54
2021/12/29 06:33:41;;;;;;;16.50;8.70;;;;;;;4.13;100.00;99758.47;5025967;28;20252;-54
2021/12/29 06:36:10;;;;;;;14.30;10.30;;;;;;;4.13;100.00;99761.06;5025935;28;20244;-56
2021/12/29 06:38:36;;;;;;;14.73;10.57;;;;;;;4.16;100.00;99771.50;5026603;28;20259;-56
2021/12/29 06:41:03;;;;;;;13.47;8.90;;;;;;;4.17;100.00;99775.81;5025964;28;20243;-54
2021/12/29 06:43:29;;;;;;;13.70;9.27;;;;;;;4.16;100.00;99774.09;5025685;28;20252;-54
2021/12/29 06:45:55;;;;;;;17.70;10.13;;;;;;;4.12;100.00;99776.66;5026082;28;20280;-54
2021/12/29 06:48:22;;;;;;;11.17;9.37;;;;;;;4.11;100.00;99785.28;5024581;28;20268;-54
2021/12/29 06:50:48;;;;;;;17.50;9.47;;;;;;;4.16;100.00;99792.28;5026695;28;20241;-53
2021/12/29 06:53:16;;;;;;;17.53;9.57;;;;;;;4.14;100.00;99803.50;5026041;28;20232;-55
2021/12/29 06:55:43;;;;;;;11.57;8.53;;;;;;;4.13;100.00;99800.03;5025374;28;20260;-56
2021/12/29 06:58:09;;;;;;;12.73;10.27;;;;;;;4.15;100.00;99806.13;5024230;28;20245;-56
2021/12/29 07:00:36;;;;;;;16.33;9.60;;;;;;;4.15;100.00;99802.66;5025924;28;20256;-56
2021/12/29 07:03:02;;;;;;;13.87;10.00;;;;;;;4.13;100.00;99812.16;5025987;28;20270;-55
2021/12/29 07:05:29;;;;;;;12.67;8.73;;;;;;;4.17;100.00;99809.59;5024563;28;20244;-52
2021/12/29 07:07:56;;;;;;;18.13;10.40;;;;;;;4.08;100.00;99819.91;5025397;28;20655;-55
2021/12/29 07:10:24;;;;;;;11.80;9.57;;;;;;;4.09;100.00;99820.78;5025403;28;20246;-55
2021/12/29 07:12:50;;;;;;;16.03;8.90;;;;;;;4.07;100.00;99819.03;5025122;28;20346;-55
2021/12/29 07:15:17;;;;;;;12.97;9.13;;;;;;;4.01;100.00;99825.91;5024981;28;20274;-56
2021/12/29 07:17:44;;;;;;;15.90;10.00;;;;;;;4.05;100.00;99823.34;5025423;28;20263;-55
2021/12/29 07:20:11;;;;;;;14.67;9.67;;;;;;;3.97;100.00;99829.31;5025460;28;20259;-54
2021/12/29 07:22:37;;;;;;;18.30;10.60;;;;;;;3.90;100.00;99820.59;5026123;28;20229;-56
2021/12/29 07:25:04;;;;;;;12.83;9.73;;;;;;;3.87;100.00;99827.47;5024834;28;20260;-53
2021/12/29 07:27:31;;;;;;;12.93;9.30;;;;;;;3.80;100.00;99819.59;5024931;28;20240;-57
2021/12/29 07:29:58;;;;;;;16.07;11.33;;;;;;;3.76;100.00;99830.81;5026040;28;20718;-56
2021/12/29 07:32:26;;;;;;;20.03;10.80;;;;;;;3.79;100.00;99836.03;5025239;28;20263;-55
2021/12/29 07:34:52;;;;;;;12.57;9.73;;;;;;;3.78;100.00;99838.59;5024681;28;20236;-54
2021/12/29 07:37:18;;;;;;;12.60;8.30;;;;;;;3.82;100.00;99838.66;5025063;28;20240;-55
2021/12/29 07:39:45;;;;;;;17.80;10.87;;;;;;;3.83;100.00;99843.00;5025417;28;20267;-55
2021/12/29 07:42:11;;;;;;;19.80;10.60;;;;;;;3.83;100.00;99837.81;5022957;28;20263;-55
2021/12/29 07:44:41;;;;;;;13.27;9.50;;;;;;;3.89;100.00;99849.13;5026169;28;20716;-56
2021/12/29 07:47:10;;;;;;;14.03;10.60;;;;;;;3.89;100.00;99852.56;5027736;28;20244;-56
2021/12/29 07:49:36;;;;;;;16.40;10.60;;;;;;;3.92;100.00;99868.19;5024770;28;20849;-53
2021/12/29 07:52:02;;;;;;;21.27;12.33;;;;;;;3.94;100.00;99863.91;5025508;28;20240;-54
2021/12/29 07:54:29;;;;;;;19.60;11.90;;;;;;;3.98;100.00;99864.81;5025270;28;20278;-54
2021/12/29 07:56:55;;;;;;;20.63;10.53;;;;;;;4.06;100.00;99870.97;5024962;28;20279;-54
2021/12/29 07:59:21;;;;;;;12.87;10.27;;;;;;;4.02;100.00;99867.44;5023338;28;20375;-56
2021/12/29 08:01:50;;;;;;;17.03;10.97;;;;;;;4.05;100.00;99871.81;5025231;28;20297;-56
2021/12/29 08:04:19;;;;;;;22.27;10.13;;;;;;;4.11;100.00;99871.00;5023852;28;20268;-54
2021/12/29 08:06:46;;;;;;;20.20;10.30;;;;;;;4.08;100.00;99884.84;5024803;28;20244;-54
2021/12/29 08:09:12;;;;;;;19.10;10.70;;;;;;;4.04;100.00;99888.25;5024795;28;20229;-56
2021/12/29 08:11:39;;;;;;;18.20;10.37;;;;;;;3.99;100.00;99895.97;5025464;28;20229;-56
2021/12/29 08:14:05;;;;;;;20.20;11.50;;;;;;;4.17;100.00;99908.31;5016711;28;20244;-56
2021/12/29 08:16:31;;;;;;;19.60;11.70;;;;;;;4.15;100.00;99917.81;5025113;28;20236;-55
2021/12/29 08:18:59;;;;;;;16.17;10.23;;;;;;;4.22;100.00;99932.63;5025711;28;20256;-53
2021/12/29 08:21:26;;;;;;;16.33;10.53;;;;;;;4.09;100.00;99928.13;5025752;28;20236;-52
2021/12/29 08:23:52;;;;;;;13.73;10.37;;;;;;;4.11;100.00;99929.03;5026959;28;20248;-55
2021/12/29 08:26:20;;;;;;;13.93;9.50;;;;;;;4.11;100.00;99931.63;5028522;28;20260;-56
2021/12/29 08:28:46;;;;;;;20.43;10.80;;;;;;;4.15;100.00;99929.94;5017446;28;20240;-55
2021/12/29 08:31:13;;;;;;;17.10;10.63;;;;;;;4.19;100.00;99927.41;5024692;28;20236;-54
2021/12/29 08:33:40;;;;;;;12.03;8.73;;;;;;;4.30;100.00;99933.59;5024737;28;20252;-55
2021/12/29 08:36:08;;;;;;;13.70;9.77;;;;;;;4.37;100.00;99933.66;5027255;28;20696;-54
2021/12/29 08:38:35;;;;;;;18.70;10.93;;;;;;;4.40;100.00;99944.09;5029922;28;20248;-53
2021/12/29 08:41:01;;;;;;;14.37;9.53;;;;;;;4.33;100.00;99934.50;5025118;28;20260;-55
2021/12/29 08:43:27;;;;;;;16.37;9.47;;;;;;;4.41;100.00;99948.44;5024587;28;20255;-54
2021/12/29 08:45:54;;;;;;;15.37;9.63;;;;;;;4.39;100.00;99951.03;5024833;28;20656;-52
2021/12/29 08:48:20;;;;;;;21.13;11.00;;;;;;;4.49;100.00;99957.16;5023419;28;20272;-53
2021/12/29 08:50:46;;;;;;;16.40;10.40;;;;;;;4.61;100.00;99965.13;5024157;28;20267;-52
2021/12/29 08:53:14;;;;;;;19.13;10.23;;;;;;;4.58;100.00;99964.22;5025515;28;20604;-54
2021/12/29 08:55:46;;;;;;;15.50;9.47;;;;;;;4.66;100.00;99973.81;5028862;28;20278;-52
2021/12/29 08:58:13;;;;;;;16.57;9.90;;;;;;;4.59;100.00;99972.00;5029566;28;20240;-53
2021/12/29 09:00:39;;;;;;;16.73;10.33;;;;;;;4.68;100.00;99972.13;5030756;28;20470;-53
2021/12/29 09:03:06;;;;;;;15.10;9.43;;;;;;;4.68;100.00;99974.72;5032744;28;20384;-53
2021/12/29 09:05:32;;;;;;;10.90;9.10;;;;;;;4.74;100.00;99977.41;5029416;28;20355;-51
2021/12/29 09:07:59;;;;;;;15.37;10.30;;;;;;;4.69;100.00;99967.78;5029630;28;20310;-55
2021/12/29 09:10:26;;;;;;;15.87;9.27;;;;;;;4.71;100.00;99981.69;5028561;28;20255;-52
2021/12/29 09:12:53;;;;;;;15.27;9.63;;;;;;;4.71;100.00;99985.16;5013914;28;20670;-52
2021/12/29 09:15:20;;;;;;;18.30;10.20;;;;;;;4.77;100.00;99987.84;5026610;28;20260;-53
2021/12/29 09:17:47;;;;;;;16.93;9.53;;;;;;;4.71;100.00;99994.69;5027443;28;20237;-52
2021/12/29 09:20:23;;;;;;;14.00;9.87;;;;;;;4.78;100.00;99992.16;5027968;28;20283;-53
2021/12/29 09:22:50;;;;;;;14.10;10.27;;;;;;;4.86;100.00;99991.38;5028252;28;20229;-55
2021/12/29 09:25:16;;;;;;;17.10;9.73;;;;;;;4.82;100.00;100000.00;5027361;28;20287;-54
2021/12/29 09:27:47;;;;;;;17.53;11.40;;;;;;;4.82;100.00;100002.59;5027108;28;20721;-56
2021/12/29 09:30:13;;;;;;;22.53;13.67;;;;;;;4.97;100.00;100006.22;5027591;28;20658;-52
2021/12/29 09:32:40;;;;;;;18.80;10.23;;;;;;;4.94;100.00;100000.13;5027326;28;20228;-53
2021/12/29 09:35:07;;;;;;;14.27;10.23;;;;;;;4.96;100.00;100008.81;5026504;28;20496;-53
2021/12/29 09:37:33;;;;;;;15.73;10.60;;;;;;;4.91;100.00;100005.28;5028133;28;20252;-53
2021/12/29 09:40:00;;;;;;;18.20;9.90;;;;;;;4.87;100.00;100003.50;5038597;28;20578;-55
2021/12/29 09:42:26;;;;;;;17.30;9.90;;;;;;;4.90;100.00;99998.34;5026777;28;20262;-52
2021/12/29 09:44:54;;;;;;;18.37;12.17;;;;;;;4.91;100.00;100005.28;5027438;28;20232;-54
2021/12/29 09:47:20;;;;;;;14.77;10.37;;;;;;;4.95;100.00;100004.44;5027090;28;20326;-54
2021/12/29 09:49:47;;;;;;;11.63;9.27;;;;;;;4.90;100.00;100009.63;5026904;28;20228;-52
2021/12/29 09:52:14;;;;;;;22.70;11.40;;;;;;;4.98;100.00;100017.50;5027429;28;20270;-54
2021/12/29 09:54:40;;;;;;;19.30;10.93;;;;;;;4.97;100.00;100008.81;5027727;28;20768;-56
2021/12/29 09:57:06;;;;;;;14.93;10.87;;;;;;;4.90;100.00;99999.22;5026345;28;20291;-55
2021/12/29 09:59:33;;;;;;;15.27;10.93;;;;;;;4.89;100.00;100004.41;5027552;28;20291;-53
2021/12/29 10:02:00;;;;;;;17.23;10.50;;;;;;;4.97;100.00;100003.63;5027846;28;20236;-54
2021/12/29 10:04:27;;;;;;;21.60;11.33;;;;;;;5.01;100.00;100005.38;5025964;28;20721;-55
2021/12/29 10:06:53;;;;;;;17.40;11.47;;;;;;;5.06;100.00;99992.44;5018788;28;20264;-55
2021/12/29 10:09:21;;;;;;;18.43;10.50;;;;;;;5.04;100.00;99996.75;5026961;28;20334;-56
2021/12/29 10:11:48;;;;;;;20.67;11.43;;;;;;;5.00;100.00;100000.19;5026331;28;20255;-54
2021/12/29 10:14:17;;;;;;;17.73;11.83;;;;;;;5.01;100.00;99999.31;5026711;28;20236;-53
2021/12/29 10:16:46;;;;;;;16.33;11.90;;;;;;;5.14;100.00;100003.78;5027195;28;20289;-53
2021/12/29 10:19:15;;;;;;;16.93;11.50;;;;;;;5.12;100.00;100005.47;5026387;28;20256;-54
2021/12/29 10:21:44;;;;;;;18.10;11.07;;;;;;;5.17;100.00;100003.81;5028217;28;20232;-55
2021/12/29 10:24:10;;;;;;;17.97;12.47;;;;;;;5.14;100.00;100008.13;5026755;28;20252;-56
2021/12/29 10:26:39;;;;;;;18.33;12.33;;;;;;;5.18;100.00;100000.34;5025538;28;20384;-54
2021/12/29 10:29:08;;;;;;;15.23;10.63;;;;;;;5.16;100.00;100007.28;5026637;28;20286;-54
2021/12/29 10:31:38;;;;;;;18.07;10.97;;;;;;;5.13;100.00;100011.59;5026657;28;20260;-54
2021/12/29 10:34:07;;;;;;;16.03;12.27;;;;;;;5.08;100.00;100014.13;5025157;28;20238;-54
2021/12/29 10:36:39;;;;;;;19.50;12.67;;;;;;;5.08;100.00;100016.72;5026056;28;20326;-53
2021/12/29 10:39:09;;;;;;;22.43;11.70;;;;;;;5.11;100.00;100014.16;5026110;28;20247;-54
2021/12/29 10:41:46;;;;;;;18.10;12.23;;;;;;;5.05;100.00;100008.88;5025960;28;20236;-53
2021/12/29 10:44:13;;;;;;;19.33;11.83;;;;;;;5.03;100.00;100015.81;5026176;28;20795;-54
2021/12/29 10:46:40;;;;;;;20.23;12.93;;;;;;;5.13;100.00;100017.66;5026238;28;20262;-54
2021/12/29 10:49:08;;;;;;;20.37;13.53;;;;;;;5.07;100.00;100022.78;5025692;28;20933;-55
2021/12/29 10:51:39;;;;;;;17.60;12.90;;;;;;;5.11;100.00;100029.78;5026483;28;20233;-53
2021/12/29 10:54:13;;;;;;;26.30;13.07;;;;;;;5.10;100.00;100022.84;5026251;28;20263;-53
2021/12/29 10:56:40;;;;;;;16.53;12.43;;;;;;;5.10;100.00;100021.97;5025092;28;20243;-53
2021/12/29 10:59:19;;;;;;;19.80;13.87;;;;;;;5.11;100.00;100014.16;5025656;28;20907;-54
2021/12/29 11:01:46;;;;;;;22.07;12.50;;;;;;;5.17;100.00;100018.56;5026112;28;20740;-53
2021/12/29 11:04:14;;;;;;;21.80;13.20;;;;;;;5.11;100.00;100029.78;5025010;28;20291;-55
2021/12/29 11:06:46;;;;;;;25.13;14.33;;;;;;;5.13;100.00;100032.41;5025652;28;20323;-55
2021/12/29 11:09:15;;;;;;;17.10;12.67;;;;;;;5.03;100.00;100040.09;5025847;28;20259;-55
2021/12/29 11:11:44;;;;;;;22.63;13.17;;;;;;;5.03;100.00;100031.44;5025709;28;20651;-55
2021/12/29 11:14:12;;;;;;;18.60;13.53;;;;;;;4.96;100.00;100030.50;5024290;28;20240;-54
2021/12/29 11:16:40;;;;;;;19.30;12.53;;;;;;;4.94;100.00;100028.72;5024688;28;20256;-53
2021/12/29 11:19:07;;;;;;;18.50;12.63;;;;;;;5.04;100.00;100043.56;5024956;28;20271;-53
2021/12/29 11:21:36;;;;;;;22.03;13.70;;;;;;;4.99;100.00;100030.53;5027697;28;20282;-55
2021/12/29 11:24:13;;;;;;;20.47;13.57;;;;;;;4.99;100.00;100029.66;5025534;28;20799;-54